Amantha, North Carolina
Current Conditions -  °F | °C
As of 11:15 PM on Wednesday 26 Nov 2014 (Local Time) from KTNB Reporting Station
Scattered Clouds Scattered Clouds  
Wind Chill: 32°   Ceiling: Unl
Heat Index: 32°   Visibility: 10mi
Dew Point: 32°   Wind: 0mph
Humidity: 99%   Direction: NA
Pressure: 29.96"   Gusts: NA
Location:  36.2666°N, 81.8431°W
Report Text: KTNB 270415Z AUTO 00000KT 10SM SCT095 00/00 A2996 RMK AO2 T00001002
Loading
Personal Weather Stations






























Interactive Weather Map New forecast layout! Learn more

10-Day Weather Forecast

Advertisements
Track Severe Weather on mobile